Tinker Air Force Base
KTIK : rendu visible

Aérodrome :











RETROUVEZ-NOUS SUR...

 
LOGIN :

S'inscrire | Disclaimer

   EN    FR    IT 

 









Légende :    VFR   VFR Marginal   IFR   IFR Intensif   IFR Très Intensif
Visi : 
Plafond : 
>= 8 km
>= 3000ft
5 à 8 km
1000 à 3000 ft
1500m à 5 km
500 à 1000 ft
800 à 1500m
200 à 500 ft
< 800m
< 200 ft
Symboles :   Orages  Brouillard  Fortes neiges  Fortes précipitations  Vent > 20 kt






- Altitude de l'aérodrome : 1291 ft


KTIK - Tinker Air Force Base

DERNIER METAR :
  • 042256Z AUTO 04006KT 10SM OVC013 06/02 A3003 RMK AO2 CIG 012 RWY13 SLP183 T00580023 $

METARs EXPIRÉS :
  • 042156Z AUTO 02005KT 10SM OVC014 06/02 A3005 RMK AO2 CIG 013 RWY13 CIG 013 RWY18 SLP190 T00570020 $
  • 042056Z AUTO 05004KT 10SM OVC013 06/02 A3006 RMK AO2 CIG 012 RWY13 SLP193 T00560019 57023 $

TAF AMD TAF KTIK
Valide du 04 à 19h jusqu'au 05 à 23h UTC


041928Z 0419/0523 03010KT 9999 OVC010 QNH3007INS
BECMG 0501/0502 VRB06KT 8000 BR BKN006 QNH3005INS
BECMG 0517/0518 VRB06KT 8000 BR BKN015 QNH3002INS
BECMG 0521/0522 17012KT 9999 NSW OVC020 510052 QNH2996INS TX11/0517Z TN05/0419Z



MET'MAP, la Météo Aéronautique d'un coup d'oeil ! - Copyright ORBIFLY Décembre 2007 - Disclaimer

ORBIFLY MET'MAP TEAM :

Programmation & Développement : Alexandra Zaïnal
Sur une idée originale de : Baudouin d'Aumeries
Assistance à la programmation : Marc-Olivier Méhu
Soutien technique & logistique : Manuel Goepfert

Contact : metmap@orbifly.com




SOURCES & CREDITS :

   NOAA       Earth
Advisory